sensor_id;sensor_type;location;lat;lon;timestamp;temperature;humidity
13462;DHT22;6803;45.264;5.468;2022-11-20T00:02:27;7.00;99.90
13462;DHT22;6803;45.264;5.468;2022-11-20T00:04:58;7.00;99.90
13462;DHT22;6803;45.264;5.468;2022-11-20T00:07:29;7.00;99.90
13462;DHT22;6803;45.264;5.468;2022-11-20T00:09:59;7.00;99.90
13462;DHT22;6803;45.264;5.468;2022-11-20T00:12:30;7.00;99.90
13462;DHT22;6803;45.264;5.468;2022-11-20T00:15:01;7.00;99.90
13462;DHT22;6803;45.264;5.468;2022-11-20T00:17:32;7.00;99.90
13462;DHT22;6803;45.264;5.468;2022-11-20T00:20:03;7.00;99.90
13462;DHT22;6803;45.264;5.468;2022-11-20T00:22:34;7.00;99.90
13462;DHT22;6803;45.264;5.468;2022-11-20T00:25:06;7.00;99.90
13462;DHT22;6803;45.264;5.468;2022-11-20T00:27:37;7.00;99.90
13462;DHT22;6803;45.264;5.468;2022-11-20T00:30:09;6.90;99.90
13462;DHT22;6803;45.264;5.468;2022-11-20T00:32:42;7.00;99.90
13462;DHT22;6803;45.264;5.468;2022-11-20T00:35:13;7.00;99.90
13462;DHT22;6803;45.264;5.468;2022-11-20T00:37:43;7.00;99.90
13462;DHT22;6803;45.264;5.468;2022-11-20T00:40:15;7.00;99.90
13462;DHT22;6803;45.264;5.468;2022-11-20T00:42:45;7.10;99.90
13462;DHT22;6803;45.264;5.468;2022-11-20T00:45:16;7.10;99.90
13462;DHT22;6803;45.264;5.468;2022-11-20T00:47:47;7.10;99.90
13462;DHT22;6803;45.264;5.468;2022-11-20T00:50:17;7.10;99.90
13462;DHT22;6803;45.264;5.468;2022-11-20T00:52:48;7.10;99.90
13462;DHT22;6803;45.264;5.468;2022-11-20T00:55:18;7.10;99.90
13462;DHT22;6803;45.264;5.468;2022-11-20T00:57:49;7.10;99.90
13462;DHT22;6803;45.264;5.468;2022-11-20T01:00:20;7.10;99.90
13462;DHT22;6803;45.264;5.468;2022-11-20T01:02:50;7.10;99.90
13462;DHT22;6803;45.264;5.468;2022-11-20T01:05:21;7.10;99.90
13462;DHT22;6803;45.264;5.468;2022-11-20T01:07:51;7.10;99.90
13462;DHT22;6803;45.264;5.468;2022-11-20T01:10:22;7.10;99.90
13462;DHT22;6803;45.264;5.468;2022-11-20T01:12:52;7.10;99.90
13462;DHT22;6803;45.264;5.468;2022-11-20T01:15:42;7.10;99.90
13462;DHT22;6803;45.264;5.468;2022-11-20T01:18:13;7.10;99.90
13462;DHT22;6803;45.264;5.468;2022-11-20T01:20:43;7.10;99.90
13462;DHT22;6803;45.264;5.468;2022-11-20T01:23:14;7.10;99.90
13462;DHT22;6803;45.264;5.468;2022-11-20T01:25:44;7.10;99.90
13462;DHT22;6803;45.264;5.468;2022-11-20T01:28:15;7.10;99.90
13462;DHT22;6803;45.264;5.468;2022-11-20T01:30:45;7.10;99.90
13462;DHT22;6803;45.264;5.468;2022-11-20T01:33:16;7.00;99.90
13462;DHT22;6803;45.264;5.468;2022-11-20T01:35:46;7.00;99.90
13462;DHT22;6803;45.264;5.468;2022-11-20T01:38:17;7.00;99.90
13462;DHT22;6803;45.264;5.468;2022-11-20T01:40:55;7.00;99.90
13462;DHT22;6803;45.264;5.468;2022-11-20T01:43:26;7.00;99.90
13462;DHT22;6803;45.264;5.468;2022-11-20T01:46:03;7.00;99.90
13462;DHT22;6803;45.264;5.468;2022-11-20T01:48:38;7.00;99.90
13462;DHT22;6803;45.264;5.468;2022-11-20T01:51:15;6.90;99.90
13462;DHT22;6803;45.264;5.468;2022-11-20T01:53:45;6.90;99.90
13462;DHT22;6803;45.264;5.468;2022-11-20T01:56:17;6.80;99.90
13462;DHT22;6803;45.264;5.468;2022-11-20T01:58:50;6.80;99.90
13462;DHT22;6803;45.264;5.468;2022-11-20T02:01:22;6.70;99.90
13462;DHT22;6803;45.264;5.468;2022-11-20T02:03:54;6.60;99.90
13462;DHT22;6803;45.264;5.468;2022-11-20T02:06:27;6.60;99.90
13462;DHT22;6803;45.264;5.468;2022-11-20T02:08:58;6.60;99.90
13462;DHT22;6803;45.264;5.468;2022-11-20T02:11:31;6.60;99.90
13462;DHT22;6803;45.264;5.468;2022-11-20T02:14:02;6.50;99.90
13462;DHT22;6803;45.264;5.468;2022-11-20T02:16:35;6.50;99.90
13462;DHT22;6803;45.264;5.468;2022-11-20T02:19:07;6.50;99.90
13462;DHT22;6803;45.264;5.468;2022-11-20T02:21:42;6.60;99.90
13462;DHT22;6803;45.264;5.468;2022-11-20T02:24:14;6.60;99.90
13462;DHT22;6803;45.264;5.468;2022-11-20T02:26:49;6.70;99.90
13462;DHT22;6803;45.264;5.468;2022-11-20T02:29:24;6.70;99.90
13462;DHT22;6803;45.264;5.468;2022-11-20T02:32:18;6.70;99.90
13462;DHT22;6803;45.264;5.468;2022-11-20T02:34:49;6.70;99.90
13462;DHT22;6803;45.264;5.468;2022-11-20T02:37:20;6.70;99.90
13462;DHT22;6803;45.264;5.468;2022-11-20T02:39:52;6.70;99.90
13462;DHT22;6803;45.264;5.468;2022-11-20T02:42:23;6.60;99.90
13462;DHT22;6803;45.264;5.468;2022-11-20T02:44:53;6.70;99.90
13462;DHT22;6803;45.264;5.468;2022-11-20T02:47:24;6.70;99.90
13462;DHT22;6803;45.264;5.468;2022-11-20T02:49:55;6.60;99.90
13462;DHT22;6803;45.264;5.468;2022-11-20T02:52:25;6.60;99.90
13462;DHT22;6803;45.264;5.468;2022-11-20T02:54:56;6.70;99.90
13462;DHT22;6803;45.264;5.468;2022-11-20T02:57:27;6.70;99.90
13462;DHT22;6803;45.264;5.468;2022-11-20T02:59:57;6.70;99.90
13462;DHT22;6803;45.264;5.468;2022-11-20T03:02:30;6.70;99.90
13462;DHT22;6803;45.264;5.468;2022-11-20T03:05:01;6.70;99.90
13462;DHT22;6803;45.264;5.468;2022-11-20T03:07:32;6.70;99.90
13462;DHT22;6803;45.264;5.468;2022-11-20T03:10:03;6.70;99.90
13462;DHT22;6803;45.264;5.468;2022-11-20T03:12:33;6.80;99.90
13462;DHT22;6803;45.264;5.468;2022-11-20T03:15:06;6.80;99.90
13462;DHT22;6803;45.264;5.468;2022-11-20T03:17:37;6.70;99.90
13462;DHT22;6803;45.264;5.468;2022-11-20T03:20:10;6.70;99.90
13462;DHT22;6803;45.264;5.468;2022-11-20T03:22:41;6.70;99.90
13462;DHT22;6803;45.264;5.468;2022-11-20T03:25:12;6.70;99.90
13462;DHT22;6803;45.264;5.468;2022-11-20T03:27:42;6.70;99.90
13462;DHT22;6803;45.264;5.468;2022-11-20T03:30:14;6.70;99.90
13462;DHT22;6803;45.264;5.468;2022-11-20T03:32:45;6.70;99.90
13462;DHT22;6803;45.264;5.468;2022-11-20T03:35:17;6.70;99.90
13462;DHT22;6803;45.264;5.468;2022-11-20T03:37:47;6.70;99.90
13462;DHT22;6803;45.264;5.468;2022-11-20T03:40:18;6.70;99.90
13462;DHT22;6803;45.264;5.468;2022-11-20T03:42:49;6.80;99.90
13462;DHT22;6803;45.264;5.468;2022-11-20T03:45:20;6.80;99.90
13462;DHT22;6803;45.264;5.468;2022-11-20T03:47:51;6.80;99.90
13462;DHT22;6803;45.264;5.468;2022-11-20T03:50:22;6.80;99.90
13462;DHT22;6803;45.264;5.468;2022-11-20T03:52:52;6.80;99.90
13462;DHT22;6803;45.264;5.468;2022-11-20T03:55:23;6.80;99.90
13462;DHT22;6803;45.264;5.468;2022-11-20T03:57:53;6.90;99.90
13462;DHT22;6803;45.264;5.468;2022-11-20T04:00:24;6.90;99.90
13462;DHT22;6803;45.264;5.468;2022-11-20T04:02:57;6.90;99.90
13462;DHT22;6803;45.264;5.468;2022-11-20T04:05:27;6.90;99.90
13462;DHT22;6803;45.264;5.468;2022-11-20T04:07:58;6.90;99.90
13462;DHT22;6803;45.264;5.468;2022-11-20T04:10:29;6.90;99.90
13462;DHT22;6803;45.264;5.468;2022-11-20T04:12:59;6.90;99.90
13462;DHT22;6803;45.264;5.468;2022-11-20T04:15:30;6.90;99.90
13462;DHT22;6803;45.264;5.468;2022-11-20T04:18:02;6.80;99.90
13462;DHT22;6803;45.264;5.468;2022-11-20T04:20:33;6.90;99.90
13462;DHT22;6803;45.264;5.468;2022-11-20T04:23:04;6.90;99.90
13462;DHT22;6803;45.264;5.468;2022-11-20T04:25:34;6.80;99.90
13462;DHT22;6803;45.264;5.468;2022-11-20T04:28:05;6.80;99.90
13462;DHT22;6803;45.264;5.468;2022-11-20T04:30:36;6.80;99.90
13462;DHT22;6803;45.264;5.468;2022-11-20T04:33:06;6.80;99.90
13462;DHT22;6803;45.264;5.468;2022-11-20T04:35:37;6.80;99.90
13462;DHT22;6803;45.264;5.468;2022-11-20T04:38:08;6.80;99.90
13462;DHT22;6803;45.264;5.468;2022-11-20T04:40:39;6.80;99.90
13462;DHT22;6803;45.264;5.468;2022-11-20T04:43:09;6.80;99.90
13462;DHT22;6803;45.264;5.468;2022-11-20T04:45:40;6.80;99.90
13462;DHT22;6803;45.264;5.468;2022-11-20T04:48:10;6.80;99.90
13462;DHT22;6803;45.264;5.468;2022-11-20T04:50:41;6.90;99.90
13462;DHT22;6803;45.264;5.468;2022-11-20T04:53:12;6.80;99.90
13462;DHT22;6803;45.264;5.468;2022-11-20T04:55:43;6.80;99.90
13462;DHT22;6803;45.264;5.468;2022-11-20T04:58:14;6.80;99.90
13462;DHT22;6803;45.264;5.468;2022-11-20T05:00:45;6.80;99.90
13462;DHT22;6803;45.264;5.468;2022-11-20T05:03:15;6.80;99.90
13462;DHT22;6803;45.264;5.468;2022-11-20T05:05:46;6.80;99.90
13462;DHT22;6803;45.264;5.468;2022-11-20T05:08:16;6.80;99.90
13462;DHT22;6803;45.264;5.468;2022-11-20T05:10:47;6.80;99.90
13462;DHT22;6803;45.264;5.468;2022-11-20T05:13:17;6.80;99.90
13462;DHT22;6803;45.264;5.468;2022-11-20T05:15:48;6.80;99.90
13462;DHT22;6803;45.264;5.468;2022-11-20T05:18:19;6.80;99.90
13462;DHT22;6803;45.264;5.468;2022-11-20T05:20:56;6.80;99.90
13462;DHT22;6803;45.264;5.468;2022-11-20T05:23:27;6.80;99.90
13462;DHT22;6803;45.264;5.468;2022-11-20T05:25:59;6.80;99.90
13462;DHT22;6803;45.264;5.468;2022-11-20T05:28:31;6.90;99.90
13462;DHT22;6803;45.264;5.468;2022-11-20T05:31:09;6.80;99.90
13462;DHT22;6803;45.264;5.468;2022-11-20T05:33:42;6.80;99.90
13462;DHT22;6803;45.264;5.468;2022-11-20T05:36:14;6.80;99.90
13462;DHT22;6803;45.264;5.468;2022-11-20T05:38:46;6.80;99.90
13462;DHT22;6803;45.264;5.468;2022-11-20T05:41:20;6.80;99.90
13462;DHT22;6803;45.264;5.468;2022-11-20T05:43:51;6.80;99.90
13462;DHT22;6803;45.264;5.468;2022-11-20T05:46:22;6.80;99.90
13462;DHT22;6803;45.264;5.468;2022-11-20T05:48:54;6.60;99.90
13462;DHT22;6803;45.264;5.468;2022-11-20T05:51:26;6.50;99.90
13462;DHT22;6803;45.264;5.468;2022-11-20T05:53:58;6.40;99.90
13462;DHT22;6803;45.264;5.468;2022-11-20T05:56:29;6.20;99.90
13462;DHT22;6803;45.264;5.468;2022-11-20T05:58:59;6.10;99.90
13462;DHT22;6803;45.264;5.468;2022-11-20T06:01:30;6.00;99.90
13462;DHT22;6803;45.264;5.468;2022-11-20T06:04:00;6.00;99.90
13462;DHT22;6803;45.264;5.468;2022-11-20T06:06:31;6.00;99.90
13462;DHT22;6803;45.264;5.468;2022-11-20T06:09:01;6.00;99.90
13462;DHT22;6803;45.264;5.468;2022-11-20T06:11:32;5.90;99.90
13462;DHT22;6803;45.264;5.468;2022-11-20T06:14:03;5.70;99.90
13462;DHT22;6803;45.264;5.468;2022-11-20T06:16:33;5.60;99.90
13462;DHT22;6803;45.264;5.468;2022-11-20T06:19:04;5.60;99.90
13462;DHT22;6803;45.264;5.468;2022-11-20T06:21:34;5.60;99.90
13462;DHT22;6803;45.264;5.468;2022-11-20T06:24:06;5.60;99.90
13462;DHT22;6803;45.264;5.468;2022-11-20T06:26:39;5.60;99.90
13462;DHT22;6803;45.264;5.468;2022-11-20T06:29:09;5.50;99.90
13462;DHT22;6803;45.264;5.468;2022-11-20T06:31:40;5.50;99.90
13462;DHT22;6803;45.264;5.468;2022-11-20T06:34:11;5.50;99.90
13462;DHT22;6803;45.264;5.468;2022-11-20T06:36:42;5.50;99.90
13462;DHT22;6803;45.264;5.468;2022-11-20T06:39:12;5.40;99.90
13462;DHT22;6803;45.264;5.468;2022-11-20T06:41:43;5.50;99.90
13462;DHT22;6803;45.264;5.468;2022-11-20T06:44:14;5.50;99.90
13462;DHT22;6803;45.264;5.468;2022-11-20T06:46:44;5.50;99.90
13462;DHT22;6803;45.264;5.468;2022-11-20T06:49:15;5.60;99.90
13462;DHT22;6803;45.264;5.468;2022-11-20T06:51:45;5.60;99.90
13462;DHT22;6803;45.264;5.468;2022-11-20T06:54:17;5.60;99.90
13462;DHT22;6803;45.264;5.468;2022-11-20T06:56:48;5.60;99.90
13462;DHT22;6803;45.264;5.468;2022-11-20T06:59:19;5.50;99.90
13462;DHT22;6803;45.264;5.468;2022-11-20T07:01:50;5.50;99.90
13462;DHT22;6803;45.264;5.468;2022-11-20T07:04:21;5.50;99.90
13462;DHT22;6803;45.264;5.468;2022-11-20T07:06:52;5.40;99.90
13462;DHT22;6803;45.264;5.468;2022-11-20T07:09:22;5.20;99.90
13462;DHT22;6803;45.264;5.468;2022-11-20T07:11:53;5.20;99.90
13462;DHT22;6803;45.264;5.468;2022-11-20T07:14:24;5.20;99.90
13462;DHT22;6803;45.264;5.468;2022-11-20T07:16:54;5.30;99.90
13462;DHT22;6803;45.264;5.468;2022-11-20T07:19:25;5.30;99.90
13462;DHT22;6803;45.264;5.468;2022-11-20T07:21:55;5.20;99.90
13462;DHT22;6803;45.264;5.468;2022-11-20T07:24:26;5.40;99.90
13462;DHT22;6803;45.264;5.468;2022-11-20T07:26:57;5.40;99.90
13462;DHT22;6803;45.264;5.468;2022-11-20T07:29:27;5.50;99.90
13462;DHT22;6803;45.264;5.468;2022-11-20T07:31:58;5.60;99.90
13462;DHT22;6803;45.264;5.468;2022-11-20T07:34:28;5.70;99.90
13462;DHT22;6803;45.264;5.468;2022-11-20T07:36:59;5.80;99.90
13462;DHT22;6803;45.264;5.468;2022-11-20T07:39:31;5.80;99.90
13462;DHT22;6803;45.264;5.468;2022-11-20T07:42:02;5.80;99.90
13462;DHT22;6803;45.264;5.468;2022-11-20T07:44:33;5.80;99.90
13462;DHT22;6803;45.264;5.468;2022-11-20T07:47:03;5.80;99.90
13462;DHT22;6803;45.264;5.468;2022-11-20T07:49:34;5.80;99.90
13462;DHT22;6803;45.264;5.468;2022-11-20T07:52:05;5.70;99.90
13462;DHT22;6803;45.264;5.468;2022-11-20T07:54:35;5.70;99.90
13462;DHT22;6803;45.264;5.468;2022-11-20T07:57:06;5.60;99.90
13462;DHT22;6803;45.264;5.468;2022-11-20T07:59:37;5.50;99.90
13462;DHT22;6803;45.264;5.468;2022-11-20T08:02:11;5.40;99.90
13462;DHT22;6803;45.264;5.468;2022-11-20T08:04:42;5.30;99.90
13462;DHT22;6803;45.264;5.468;2022-11-20T08:07:13;5.30;99.90
13462;DHT22;6803;45.264;5.468;2022-11-20T08:09:43;5.30;99.90
13462;DHT22;6803;45.264;5.468;2022-11-20T08:12:19;5.50;99.90
13462;DHT22;6803;45.264;5.468;2022-11-20T08:15:10;5.60;99.90
13462;DHT22;6803;45.264;5.468;2022-11-20T08:17:41;5.60;99.90
13462;DHT22;6803;45.264;5.468;2022-11-20T08:20:14;5.70;99.90
13462;DHT22;6803;45.264;5.468;2022-11-20T08:22:44;5.90;99.90
13462;DHT22;6803;45.264;5.468;2022-11-20T08:25:15;6.10;99.90
13462;DHT22;6803;45.264;5.468;2022-11-20T08:27:46;6.10;99.90
13462;DHT22;6803;45.264;5.468;2022-11-20T08:30:17;6.10;99.90
13462;DHT22;6803;45.264;5.468;2022-11-20T08:32:48;6.20;99.90
13462;DHT22;6803;45.264;5.468;2022-11-20T08:35:20;6.40;99.90
13462;DHT22;6803;45.264;5.468;2022-11-20T08:37:51;6.50;99.90
13462;DHT22;6803;45.264;5.468;2022-11-20T08:40:23;6.70;99.90
13462;DHT22;6803;45.264;5.468;2022-11-20T08:42:54;6.80;99.90
13462;DHT22;6803;45.264;5.468;2022-11-20T08:45:25;7.10;99.90
13462;DHT22;6803;45.264;5.468;2022-11-20T08:48:02;7.20;99.90
13462;DHT22;6803;45.264;5.468;2022-11-20T08:50:33;7.10;99.90
13462;DHT22;6803;45.264;5.468;2022-11-20T08:53:04;7.30;99.90
13462;DHT22;6803;45.264;5.468;2022-11-20T08:55:35;7.50;99.90
13462;DHT22;6803;45.264;5.468;2022-11-20T08:58:06;7.60;99.90
13462;DHT22;6803;45.264;5.468;2022-11-20T09:00:36;7.50;99.90
13462;DHT22;6803;45.264;5.468;2022-11-20T09:03:07;7.60;99.90
13462;DHT22;6803;45.264;5.468;2022-11-20T09:05:38;7.70;99.90
13462;DHT22;6803;45.264;5.468;2022-11-20T09:08:08;7.70;99.90
13462;DHT22;6803;45.264;5.468;2022-11-20T09:10:39;7.80;99.90
13462;DHT22;6803;45.264;5.468;2022-11-20T09:13:09;7.90;99.90
13462;DHT22;6803;45.264;5.468;2022-11-20T09:15:41;8.00;99.90
13462;DHT22;6803;45.264;5.468;2022-11-20T09:18:12;8.10;99.90
13462;DHT22;6803;45.264;5.468;2022-11-20T09:20:43;8.20;99.90
13462;DHT22;6803;45.264;5.468;2022-11-20T09:23:14;8.50;99.90
13462;DHT22;6803;45.264;5.468;2022-11-20T09:25:45;8.50;99.90
13462;DHT22;6803;45.264;5.468;2022-11-20T09:28:16;8.80;99.90
13462;DHT22;6803;45.264;5.468;2022-11-20T09:30:47;9.10;99.90
13462;DHT22;6803;45.264;5.468;2022-11-20T09:33:18;9.30;99.90
13462;DHT22;6803;45.264;5.468;2022-11-20T09:35:49;9.30;99.90
13462;DHT22;6803;45.264;5.468;2022-11-20T09:38:20;8.90;99.90
13462;DHT22;6803;45.264;5.468;2022-11-20T09:43:40;8.30;99.90
13462;DHT22;6803;45.264;5.468;2022-11-20T09:46:14;8.30;99.90
13462;DHT22;6803;45.264;5.468;2022-11-20T09:49:03;8.30;99.90
13462;DHT22;6803;45.264;5.468;2022-11-20T09:51:41;8.40;99.90
13462;DHT22;6803;45.264;5.468;2022-11-20T09:54:17;8.50;99.90
13462;DHT22;6803;45.264;5.468;2022-11-20T09:56:53;8.40;99.90
13462;DHT22;6803;45.264;5.468;2022-11-20T09:59:35;8.50;99.90
13462;DHT22;6803;45.264;5.468;2022-11-20T10:02:30;8.60;99.90
13462;DHT22;6803;45.264;5.468;2022-11-20T10:05:06;8.70;99.90
13462;DHT22;6803;45.264;5.468;2022-11-20T10:07:39;8.60;99.90
13462;DHT22;6803;45.264;5.468;2022-11-20T10:10:30;8.70;99.90
13462;DHT22;6803;45.264;5.468;2022-11-20T10:13:15;8.60;99.90
13462;DHT22;6803;45.264;5.468;2022-11-20T10:15:52;8.50;99.90
13462;DHT22;6803;45.264;5.468;2022-11-20T10:18:30;8.60;99.90
13462;DHT22;6803;45.264;5.468;2022-11-20T10:21:05;8.70;99.90
13462;DHT22;6803;45.264;5.468;2022-11-20T10:23:48;8.80;99.90
13462;DHT22;6803;45.264;5.468;2022-11-20T10:26:22;8.80;99.90
13462;DHT22;6803;45.264;5.468;2022-11-20T10:29:03;8.80;99.90
13462;DHT22;6803;45.264;5.468;2022-11-20T10:34:20;8.90;99.90
13462;DHT22;6803;45.264;5.468;2022-11-20T10:36:55;8.80;99.90
13462;DHT22;6803;45.264;5.468;2022-11-20T10:39:31;9.00;99.90
13462;DHT22;6803;45.264;5.468;2022-11-20T10:42:04;9.00;99.90
13462;DHT22;6803;45.264;5.468;2022-11-20T10:44:38;9.00;99.90
13462;DHT22;6803;45.264;5.468;2022-11-20T10:47:33;8.90;99.90
13462;DHT22;6803;45.264;5.468;2022-11-20T10:50:09;9.00;99.90
13462;DHT22;6803;45.264;5.468;2022-11-20T10:52:46;9.10;99.90
13462;DHT22;6803;45.264;5.468;2022-11-20T10:55:25;9.00;99.90
13462;DHT22;6803;45.264;5.468;2022-11-20T10:58:02;9.20;99.90
13462;DHT22;6803;45.264;5.468;2022-11-20T11:00:34;9.10;99.90
13462;DHT22;6803;45.264;5.468;2022-11-20T11:03:25;8.80;99.90
13462;DHT22;6803;45.264;5.468;2022-11-20T11:08:40;8.90;99.90
13462;DHT22;6803;45.264;5.468;2022-11-20T11:11:20;9.00;99.90
13462;DHT22;6803;45.264;5.468;2022-11-20T11:13:50;9.00;99.90
13462;DHT22;6803;45.264;5.468;2022-11-20T11:16:23;9.10;99.90
13462;DHT22;6803;45.264;5.468;2022-11-20T11:19:06;9.00;99.90
13462;DHT22;6803;45.264;5.468;2022-11-20T11:21:36;8.80;99.90
13462;DHT22;6803;45.264;5.468;2022-11-20T11:24:20;8.70;99.90
13462;DHT22;6803;45.264;5.468;2022-11-20T11:26:56;8.70;99.90
13462;DHT22;6803;45.264;5.468;2022-11-20T11:29:27;8.90;99.90
13462;DHT22;6803;45.264;5.468;2022-11-20T12:10:21;8.90;99.90
13462;DHT22;6803;45.264;5.468;2022-11-20T12:12:55;12.70;99.90
13462;DHT22;6803;45.264;5.468;2022-11-20T12:18:14;13.30;99.90
13462;DHT22;6803;45.264;5.468;2022-11-20T12:20:51;12.80;99.90
13462;DHT22;6803;45.264;5.468;2022-11-20T12:23:24;13.20;99.90
13462;DHT22;6803;45.264;5.468;2022-11-20T12:25:58;13.70;99.90
13462;DHT22;6803;45.264;5.468;2022-11-20T12:28:38;13.40;99.90
13462;DHT22;6803;45.264;5.468;2022-11-20T12:31:19;11.80;99.90
13462;DHT22;6803;45.264;5.468;2022-11-20T12:34:00;12.40;99.90
13462;DHT22;6803;45.264;5.468;2022-11-20T12:36:37;12.50;99.90
13462;DHT22;6803;45.264;5.468;2022-11-20T12:42:07;12.40;99.90
13462;DHT22;6803;45.264;5.468;2022-11-20T12:45:12;12.30;99.90
13462;DHT22;6803;45.264;5.468;2022-11-20T12:47:59;11.80;99.90
13462;DHT22;6803;45.264;5.468;2022-11-20T12:50:35;11.00;99.90
13462;DHT22;6803;45.264;5.468;2022-11-20T12:53:27;10.30;99.90
13462;DHT22;6803;45.264;5.468;2022-11-20T12:56:02;9.90;99.90
13462;DHT22;6803;45.264;5.468;2022-11-20T12:58:43;9.80;99.90
13462;DHT22;6803;45.264;5.468;2022-11-20T13:01:12;9.60;99.90
13462;DHT22;6803;45.264;5.468;2022-11-20T13:03:46;9.70;99.90
13462;DHT22;6803;45.264;5.468;2022-11-20T13:06:18;10.00;99.90
13462;DHT22;6803;45.264;5.468;2022-11-20T13:08:53;10.00;99.90
13462;DHT22;6803;45.264;5.468;2022-11-20T13:11:31;9.90;99.90
13462;DHT22;6803;45.264;5.468;2022-11-20T13:14:26;9.90;99.90
13462;DHT22;6803;45.264;5.468;2022-11-20T13:34:56;10.10;99.90
13462;DHT22;6803;45.264;5.468;2022-11-20T13:37:30;10.10;99.90
13462;DHT22;6803;45.264;5.468;2022-11-20T13:40:19;10.10;99.90
13462;DHT22;6803;45.264;5.468;2022-11-20T13:42:54;10.10;99.90
13462;DHT22;6803;45.264;5.468;2022-11-20T13:45:25;10.00;99.90
13462;DHT22;6803;45.264;5.468;2022-11-20T16:11:24;9.90;99.90
13462;DHT22;6803;45.264;5.468;2022-11-20T16:13:55;7.40;99.90
13462;DHT22;6803;45.264;5.468;2022-11-20T16:16:56;7.40;99.90
13462;DHT22;6803;45.264;5.468;2022-11-20T16:19:27;7.50;99.90
13462;DHT22;6803;45.264;5.468;2022-11-20T16:21:59;7.40;99.90
13462;DHT22;6803;45.264;5.468;2022-11-20T16:24:31;7.50;99.90
13462;DHT22;6803;45.264;5.468;2022-11-20T16:27:21;7.50;99.90
13462;DHT22;6803;45.264;5.468;2022-11-20T16:29:52;7.50;99.90
13462;DHT22;6803;45.264;5.468;2022-11-20T16:32:22;7.50;99.90
13462;DHT22;6803;45.264;5.468;2022-11-20T16:34:53;7.60;99.90
13462;DHT22;6803;45.264;5.468;2022-11-20T16:37:24;7.60;99.90
13462;DHT22;6803;45.264;5.468;2022-11-20T16:39:55;7.60;99.90
13462;DHT22;6803;45.264;5.468;2022-11-20T16:42:26;7.70;99.90
13462;DHT22;6803;45.264;5.468;2022-11-20T16:44:56;7.80;99.90
13462;DHT22;6803;45.264;5.468;2022-11-20T16:47:27;7.80;99.90
13462;DHT22;6803;45.264;5.468;2022-11-20T16:49:58;7.80;99.90
13462;DHT22;6803;45.264;5.468;2022-11-20T16:52:29;7.80;99.90
13462;DHT22;6803;45.264;5.468;2022-11-20T16:55:00;7.80;99.90
13462;DHT22;6803;45.264;5.468;2022-11-20T16:57:32;7.80;99.90
13462;DHT22;6803;45.264;5.468;2022-11-20T17:00:04;7.80;99.90
13462;DHT22;6803;45.264;5.468;2022-11-20T17:02:35;7.70;99.90
13462;DHT22;6803;45.264;5.468;2022-11-20T17:05:08;7.80;99.90
13462;DHT22;6803;45.264;5.468;2022-11-20T17:07:38;7.90;99.90
13462;DHT22;6803;45.264;5.468;2022-11-20T17:10:09;7.80;99.90
13462;DHT22;6803;45.264;5.468;2022-11-20T17:12:40;7.70;99.90
13462;DHT22;6803;45.264;5.468;2022-11-20T17:15:13;7.70;99.90
13462;DHT22;6803;45.264;5.468;2022-11-20T17:17:43;7.60;99.90
13462;DHT22;6803;45.264;5.468;2022-11-20T17:20:14;7.60;99.90
13462;DHT22;6803;45.264;5.468;2022-11-20T17:22:45;7.60;99.90
13462;DHT22;6803;45.264;5.468;2022-11-20T17:25:16;7.60;99.90
13462;DHT22;6803;45.264;5.468;2022-11-20T17:27:46;7.50;99.90
13462;DHT22;6803;45.264;5.468;2022-11-20T17:30:17;7.50;99.90
13462;DHT22;6803;45.264;5.468;2022-11-20T17:32:48;7.70;99.90
13462;DHT22;6803;45.264;5.468;2022-11-20T17:35:19;7.70;99.90
13462;DHT22;6803;45.264;5.468;2022-11-20T17:37:49;7.70;99.90
13462;DHT22;6803;45.264;5.468;2022-11-20T17:40:20;7.50;99.90
13462;DHT22;6803;45.264;5.468;2022-11-20T17:42:52;7.50;99.90
13462;DHT22;6803;45.264;5.468;2022-11-20T17:45:24;7.40;99.90
13462;DHT22;6803;45.264;5.468;2022-11-20T17:47:54;7.40;99.90
13462;DHT22;6803;45.264;5.468;2022-11-20T17:50:25;7.30;99.90
13462;DHT22;6803;45.264;5.468;2022-11-20T17:52:56;7.20;99.90
13462;DHT22;6803;45.264;5.468;2022-11-20T17:55:27;7.20;99.90
13462;DHT22;6803;45.264;5.468;2022-11-20T17:57:59;7.10;99.90
13462;DHT22;6803;45.264;5.468;2022-11-20T18:00:32;7.20;99.90
13462;DHT22;6803;45.264;5.468;2022-11-20T18:03:02;7.10;99.90
13462;DHT22;6803;45.264;5.468;2022-11-20T18:05:33;7.20;99.90
13462;DHT22;6803;45.264;5.468;2022-11-20T18:08:04;7.20;99.90
13462;DHT22;6803;45.264;5.468;2022-11-20T18:10:34;7.20;99.90
13462;DHT22;6803;45.264;5.468;2022-11-20T18:13:05;7.20;99.90
13462;DHT22;6803;45.264;5.468;2022-11-20T18:15:36;7.20;99.90
13462;DHT22;6803;45.264;5.468;2022-11-20T18:18:06;7.30;99.90
13462;DHT22;6803;45.264;5.468;2022-11-20T18:20:37;7.20;99.90
13462;DHT22;6803;45.264;5.468;2022-11-20T18:23:08;7.00;99.90
13462;DHT22;6803;45.264;5.468;2022-11-20T18:25:39;7.00;99.90
13462;DHT22;6803;45.264;5.468;2022-11-20T18:28:11;7.00;99.90
13462;DHT22;6803;45.264;5.468;2022-11-20T18:30:42;7.00;99.90
13462;DHT22;6803;45.264;5.468;2022-11-20T18:33:13;6.90;99.90
13462;DHT22;6803;45.264;5.468;2022-11-20T18:35:45;6.80;99.90
13462;DHT22;6803;45.264;5.468;2022-11-20T18:38:16;6.60;99.90
13462;DHT22;6803;45.264;5.468;2022-11-20T18:40:46;6.50;99.90
13462;DHT22;6803;45.264;5.468;2022-11-20T18:43:17;6.40;99.90
13462;DHT22;6803;45.264;5.468;2022-11-20T18:46:06;6.20;99.90
13462;DHT22;6803;45.264;5.468;2022-11-20T18:48:36;6.00;99.90
13462;DHT22;6803;45.264;5.468;2022-11-20T18:51:07;5.80;99.90
13462;DHT22;6803;45.264;5.468;2022-11-20T18:53:40;5.70;99.90
13462;DHT22;6803;45.264;5.468;2022-11-20T18:56:12;5.60;99.90
13462;DHT22;6803;45.264;5.468;2022-11-20T18:58:43;5.80;99.90
13462;DHT22;6803;45.264;5.468;2022-11-20T19:01:13;6.00;99.90
13462;DHT22;6803;45.264;5.468;2022-11-20T19:06:23;6.10;99.90
13462;DHT22;6803;45.264;5.468;2022-11-20T19:08:54;6.30;99.90
13462;DHT22;6803;45.264;5.468;2022-11-20T19:11:25;6.20;99.90
13462;DHT22;6803;45.264;5.468;2022-11-20T19:13:56;6.20;99.90
13462;DHT22;6803;45.264;5.468;2022-11-20T19:16:27;6.20;99.90
13462;DHT22;6803;45.264;5.468;2022-11-20T19:19:01;6.20;99.90
13462;DHT22;6803;45.264;5.468;2022-11-20T19:21:32;6.20;99.90
13462;DHT22;6803;45.264;5.468;2022-11-20T19:24:04;6.20;99.90
13462;DHT22;6803;45.264;5.468;2022-11-20T19:26:36;6.30;99.90
13462;DHT22;6803;45.264;5.468;2022-11-20T19:29:07;6.50;99.90
13462;DHT22;6803;45.264;5.468;2022-11-20T19:31:39;6.60;99.90
13462;DHT22;6803;45.264;5.468;2022-11-20T19:34:10;6.70;99.90
13462;DHT22;6803;45.264;5.468;2022-11-20T19:36:41;6.60;99.90
13462;DHT22;6803;45.264;5.468;2022-11-20T19:39:13;6.70;99.90
13462;DHT22;6803;45.264;5.468;2022-11-20T19:41:44;6.60;99.90
13462;DHT22;6803;45.264;5.468;2022-11-20T19:44:16;6.60;99.90
13462;DHT22;6803;45.264;5.468;2022-11-20T19:46:47;6.60;99.90
13462;DHT22;6803;45.264;5.468;2022-11-20T19:49:19;6.60;99.90
13462;DHT22;6803;45.264;5.468;2022-11-20T19:51:50;6.70;99.90
13462;DHT22;6803;45.264;5.468;2022-11-20T19:54:20;6.70;99.90
13462;DHT22;6803;45.264;5.468;2022-11-20T19:56:51;6.80;99.90
13462;DHT22;6803;45.264;5.468;2022-11-20T19:59:22;6.80;99.90
13462;DHT22;6803;45.264;5.468;2022-11-20T20:01:54;6.80;99.90
13462;DHT22;6803;45.264;5.468;2022-11-20T20:04:25;6.90;99.90
13462;DHT22;6803;45.264;5.468;2022-11-20T20:06:56;7.00;99.90
13462;DHT22;6803;45.264;5.468;2022-11-20T20:09:27;6.90;99.90
13462;DHT22;6803;45.264;5.468;2022-11-20T20:11:58;6.80;99.90